罗盘
风向 的 风向 的 风向 到 风向 300° Volkel Air Base 6L/24R
风向 到 风: 11 kt, 阵阵 21 kt, 4 beaufort

5 kt

9 kt
改变
0 2.000 4.000 6.000 8.000 10.000
BKN 4.000 ft
BKN 4.500 ft
BKN 5.300 ft
METAR EHVK 271255Z AUTO 30011G21KT 250V340 9999 BKN040 BKN045 BKN053 17/07 Q1021 BLU

METAR Volkel Air Base

Volkel Air Base是Uden,荷兰中的中型机场。 该机场有3条跑道: 6L/24R, 6R/24L 和 6/24.

这份报告是针对2022年5月27日 2:55 下午, 当地时间在Volkel Air Base进行的。

机场观察

风向为300°,速度为11 kt。 已测得21 kt的阵风。 风向在250°和340°之间变化。

可见度为6¼ mi 或者更多。

有碎云在4.000 ft的高度, 碎云在4.500 ft的高度 和 碎云在5.300 ft的高度。 破损或更高的上限为4.000 ft。

温度和风寒是63 °F。 露点为45 °F,相对湿度为52%。 海平面上的气压为30,15 inHg (QNH)。

白天

今天,太阳从5:29 上午升起,在9:39 下午降落。 这适用于Volkel Air Base,世界夏令时可能有所不同。 当地时间与世界标准时间之间的时差为+2 小时。 夏令时目前正在进行中。

公司介绍

我们没有关于这个机场的公司信息。

体会

到Vliegles.nl去找飞行课程,跳伞和其他飞行体验。 浏览页面,了解Volkel Air Base附近所有可用的活动。 你也可以使用搜索功能来寻找你所在地附近的特定飞行课程、跳伞或其他飞行体验。

您会帮助我们保持Metar-Taf.com正常运行吗?
您的贡献有助于网站的进一步开发并支付费用。

没有更多广告

您是捐款5美元还是更多?然后,我们将永远不会再向您展示广告,这是我们永恒的感谢!
捐赠前先登录

跑道

Id 标题 侧风 逆风
6L/24R 058°-238° 9 kt 18 kt 5 kt 9 kt
6R/24L 058°-238° 9 kt 18 kt 5 kt 9 kt
6/24 055°-235° 9 kt 19 kt 4 kt 8 kt

逆风成分最大的方向会被突出显示,并用于横风计算。 这并不一定意味着这个方向在使用。

乌云

4.000 ft BKN 碎云
4.500 ft BKN 碎云
5.300 ft BKN 碎云

温度 & 天气

温度 63 °F
露点 45 °F
相对湿度 52%
Kp-index 3  

公司介绍

新增公司

下载我们的应用程序

在您的手机和平板电脑上轻松访问所有航空天气。
有许多网站上没有的功能,如离线支持和个人机场列表。

Studio Eveline

Benalmádena
España

我们和第三方通过cookies跟踪您在我们网站上的上网行为。如果您继续,我们认为您同意我们的cookie政策。 了解更多